sensor_id;sensor_type;location;lat;lon;timestamp;temperature;humidity
17489;DHT22;8861;52.644;4.734;2022-11-20T00:01:26;0.00;99.90
17489;DHT22;8861;52.644;4.734;2022-11-20T00:03:54;-0.10;99.90
17489;DHT22;8861;52.644;4.734;2022-11-20T00:06:23;-0.10;99.90
17489;DHT22;8861;52.644;4.734;2022-11-20T00:08:51;-0.10;99.90
17489;DHT22;8861;52.644;4.734;2022-11-20T00:11:20;-0.20;99.90
17489;DHT22;8861;52.644;4.734;2022-11-20T00:13:50;-0.20;99.90
17489;DHT22;8861;52.644;4.734;2022-11-20T00:16:19;-0.20;99.90
17489;DHT22;8861;52.644;4.734;2022-11-20T00:18:46;-0.20;99.90
17489;DHT22;8861;52.644;4.734;2022-11-20T00:21:15;-0.20;99.90
17489;DHT22;8861;52.644;4.734;2022-11-20T00:23:44;-0.20;99.90
17489;DHT22;8861;52.644;4.734;2022-11-20T00:26:12;-0.30;99.90
17489;DHT22;8861;52.644;4.734;2022-11-20T00:28:40;-0.30;99.90
17489;DHT22;8861;52.644;4.734;2022-11-20T00:31:08;-0.40;99.90
17489;DHT22;8861;52.644;4.734;2022-11-20T00:33:35;-0.40;99.90
17489;DHT22;8861;52.644;4.734;2022-11-20T00:36:04;-0.40;99.90
17489;DHT22;8861;52.644;4.734;2022-11-20T00:38:31;-0.40;99.90
17489;DHT22;8861;52.644;4.734;2022-11-20T00:41:01;-0.50;99.90
17489;DHT22;8861;52.644;4.734;2022-11-20T00:43:28;-0.50;99.90
17489;DHT22;8861;52.644;4.734;2022-11-20T00:45:58;-0.50;99.90
17489;DHT22;8861;52.644;4.734;2022-11-20T00:48:25;-0.50;99.90
17489;DHT22;8861;52.644;4.734;2022-11-20T00:50:52;-0.50;99.90
17489;DHT22;8861;52.644;4.734;2022-11-20T00:53:20;-0.50;99.90
17489;DHT22;8861;52.644;4.734;2022-11-20T00:55:54;-0.50;99.90
17489;DHT22;8861;52.644;4.734;2022-11-20T00:58:23;-0.50;99.90
17489;DHT22;8861;52.644;4.734;2022-11-20T01:00:51;-0.50;99.90
17489;DHT22;8861;52.644;4.734;2022-11-20T01:03:18;-0.60;99.90
17489;DHT22;8861;52.644;4.734;2022-11-20T01:05:45;-0.60;99.90
17489;DHT22;8861;52.644;4.734;2022-11-20T01:08:12;-0.60;99.90
17489;DHT22;8861;52.644;4.734;2022-11-20T01:10:39;-0.60;99.90
17489;DHT22;8861;52.644;4.734;2022-11-20T01:13:06;-0.60;99.90
17489;DHT22;8861;52.644;4.734;2022-11-20T01:15:52;-0.60;99.90
17489;DHT22;8861;52.644;4.734;2022-11-20T01:18:18;-0.50;99.90
17489;DHT22;8861;52.644;4.734;2022-11-20T01:20:45;-0.60;99.90
17489;DHT22;8861;52.644;4.734;2022-11-20T01:23:12;-0.60;99.90
17489;DHT22;8861;52.644;4.734;2022-11-20T01:25:39;-0.60;99.90
17489;DHT22;8861;52.644;4.734;2022-11-20T01:28:06;-0.60;99.90
17489;DHT22;8861;52.644;4.734;2022-11-20T01:30:33;-0.60;99.90
17489;DHT22;8861;52.644;4.734;2022-11-20T01:33:01;-0.60;99.90
17489;DHT22;8861;52.644;4.734;2022-11-20T01:35:28;-0.60;99.90
17489;DHT22;8861;52.644;4.734;2022-11-20T01:37:55;-0.60;99.90
17489;DHT22;8861;52.644;4.734;2022-11-20T01:40:22;-0.60;99.90
17489;DHT22;8861;52.644;4.734;2022-11-20T01:43:00;-0.60;99.90
17489;DHT22;8861;52.644;4.734;2022-11-20T01:46:05;-0.60;99.90
17489;DHT22;8861;52.644;4.734;2022-11-20T01:48:37;-0.70;99.90
17489;DHT22;8861;52.644;4.734;2022-11-20T01:51:08;-0.60;99.90
17489;DHT22;8861;52.644;4.734;2022-11-20T01:53:37;-0.70;99.90
17489;DHT22;8861;52.644;4.734;2022-11-20T01:56:08;-0.70;99.90
17489;DHT22;8861;52.644;4.734;2022-11-20T01:58:38;-0.70;99.90
17489;DHT22;8861;52.644;4.734;2022-11-20T02:01:06;-0.70;99.90
17489;DHT22;8861;52.644;4.734;2022-11-20T02:03:35;-0.70;99.90
17489;DHT22;8861;52.644;4.734;2022-11-20T02:06:07;-0.80;99.90
17489;DHT22;8861;52.644;4.734;2022-11-20T02:08:37;-0.70;99.90
17489;DHT22;8861;52.644;4.734;2022-11-20T02:11:04;-0.80;99.90
17489;DHT22;8861;52.644;4.734;2022-11-20T02:13:31;-0.80;99.90
17489;DHT22;8861;52.644;4.734;2022-11-20T02:16:20;-0.80;99.90
17489;DHT22;8861;52.644;4.734;2022-11-20T02:18:50;-0.80;99.90
17489;DHT22;8861;52.644;4.734;2022-11-20T02:21:24;-0.90;99.90
17489;DHT22;8861;52.644;4.734;2022-11-20T02:24:01;-0.90;99.90
17489;DHT22;8861;52.644;4.734;2022-11-20T02:26:29;-0.90;99.90
17489;DHT22;8861;52.644;4.734;2022-11-20T02:28:57;-0.90;99.90
17489;DHT22;8861;52.644;4.734;2022-11-20T02:31:24;-0.90;99.90
17489;DHT22;8861;52.644;4.734;2022-11-20T02:33:55;-1.00;99.90
17489;DHT22;8861;52.644;4.734;2022-11-20T02:36:22;-1.00;99.90
17489;DHT22;8861;52.644;4.734;2022-11-20T02:38:50;-1.00;99.90
17489;DHT22;8861;52.644;4.734;2022-11-20T02:41:18;-1.00;99.90
17489;DHT22;8861;52.644;4.734;2022-11-20T02:43:45;-1.00;99.90
17489;DHT22;8861;52.644;4.734;2022-11-20T02:46:12;-1.00;99.90
17489;DHT22;8861;52.644;4.734;2022-11-20T02:48:39;-1.00;99.90
17489;DHT22;8861;52.644;4.734;2022-11-20T02:51:06;-1.00;99.90
17489;DHT22;8861;52.644;4.734;2022-11-20T02:53:33;-1.00;99.90
17489;DHT22;8861;52.644;4.734;2022-11-20T02:56:00;-1.00;99.90
17489;DHT22;8861;52.644;4.734;2022-11-20T02:58:28;-1.00;99.90
17489;DHT22;8861;52.644;4.734;2022-11-20T03:00:55;-1.10;99.90
17489;DHT22;8861;52.644;4.734;2022-11-20T03:03:22;-1.10;99.90
17489;DHT22;8861;52.644;4.734;2022-11-20T03:05:48;-1.10;99.90
17489;DHT22;8861;52.644;4.734;2022-11-20T03:08:15;-1.10;99.90
17489;DHT22;8861;52.644;4.734;2022-11-20T03:10:42;-1.10;99.90
17489;DHT22;8861;52.644;4.734;2022-11-20T03:13:09;-1.20;99.90
17489;DHT22;8861;52.644;4.734;2022-11-20T03:15:37;-1.20;99.90
17489;DHT22;8861;52.644;4.734;2022-11-20T03:18:04;-1.10;99.90
17489;DHT22;8861;52.644;4.734;2022-11-20T03:20:32;-1.20;99.90
17489;DHT22;8861;52.644;4.734;2022-11-20T03:23:00;-1.10;99.90
17489;DHT22;8861;52.644;4.734;2022-11-20T03:25:27;-1.10;99.90
17489;DHT22;8861;52.644;4.734;2022-11-20T03:27:54;-1.10;99.90
17489;DHT22;8861;52.644;4.734;2022-11-20T03:30:21;-1.10;99.90
17489;DHT22;8861;52.644;4.734;2022-11-20T03:32:49;-1.10;99.90
17489;DHT22;8861;52.644;4.734;2022-11-20T03:35:19;-1.20;99.90
17489;DHT22;8861;52.644;4.734;2022-11-20T03:37:46;-1.20;99.90
17489;DHT22;8861;52.644;4.734;2022-11-20T03:40:14;-1.20;99.90
17489;DHT22;8861;52.644;4.734;2022-11-20T03:42:40;-1.20;99.90
17489;DHT22;8861;52.644;4.734;2022-11-20T03:45:14;-1.20;99.90
17489;DHT22;8861;52.644;4.734;2022-11-20T03:47:41;-1.20;99.90
17489;DHT22;8861;52.644;4.734;2022-11-20T03:50:10;-1.20;99.90
17489;DHT22;8861;52.644;4.734;2022-11-20T03:52:38;-1.20;99.90
17489;DHT22;8861;52.644;4.734;2022-11-20T03:55:06;-1.20;99.90
17489;DHT22;8861;52.644;4.734;2022-11-20T03:57:33;-1.20;99.90
17489;DHT22;8861;52.644;4.734;2022-11-20T04:00:00;-1.30;99.90
17489;DHT22;8861;52.644;4.734;2022-11-20T04:02:27;-1.30;99.90
17489;DHT22;8861;52.644;4.734;2022-11-20T04:04:54;-1.20;99.90
17489;DHT22;8861;52.644;4.734;2022-11-20T04:07:22;-1.30;99.90
17489;DHT22;8861;52.644;4.734;2022-11-20T04:09:49;-1.30;99.90
17489;DHT22;8861;52.644;4.734;2022-11-20T04:12:15;-1.30;99.90
17489;DHT22;8861;52.644;4.734;2022-11-20T04:14:42;-1.30;99.90
17489;DHT22;8861;52.644;4.734;2022-11-20T04:17:09;-1.30;99.90
17489;DHT22;8861;52.644;4.734;2022-11-20T04:19:36;-1.30;99.90
17489;DHT22;8861;52.644;4.734;2022-11-20T04:22:03;-1.30;99.90
17489;DHT22;8861;52.644;4.734;2022-11-20T04:24:31;-1.30;99.90
17489;DHT22;8861;52.644;4.734;2022-11-20T04:26:58;-1.30;99.90
17489;DHT22;8861;52.644;4.734;2022-11-20T04:29:25;-1.30;99.90
17489;DHT22;8861;52.644;4.734;2022-11-20T04:31:52;-1.30;99.90
17489;DHT22;8861;52.644;4.734;2022-11-20T04:34:18;-1.20;99.90
17489;DHT22;8861;52.644;4.734;2022-11-20T04:36:45;-1.20;99.90
17489;DHT22;8861;52.644;4.734;2022-11-20T04:39:13;-1.10;99.90
17489;DHT22;8861;52.644;4.734;2022-11-20T04:41:42;-1.10;99.90
17489;DHT22;8861;52.644;4.734;2022-11-20T04:44:09;-1.10;99.90
17489;DHT22;8861;52.644;4.734;2022-11-20T04:46:38;-1.10;99.90
17489;DHT22;8861;52.644;4.734;2022-11-20T04:49:05;-1.00;99.90
17489;DHT22;8861;52.644;4.734;2022-11-20T04:51:33;-1.00;99.90
17489;DHT22;8861;52.644;4.734;2022-11-20T04:54:00;-1.00;99.90
17489;DHT22;8861;52.644;4.734;2022-11-20T04:56:27;-1.00;99.90
17489;DHT22;8861;52.644;4.734;2022-11-20T04:58:55;-1.00;99.90
17489;DHT22;8861;52.644;4.734;2022-11-20T05:01:23;-1.00;99.90
17489;DHT22;8861;52.644;4.734;2022-11-20T05:03:51;-0.90;99.90
17489;DHT22;8861;52.644;4.734;2022-11-20T05:06:20;-0.90;99.90
17489;DHT22;8861;52.644;4.734;2022-11-20T05:08:47;-0.90;99.90
17489;DHT22;8861;52.644;4.734;2022-11-20T05:11:16;-0.90;99.90
17489;DHT22;8861;52.644;4.734;2022-11-20T05:13:43;-0.90;99.90
17489;DHT22;8861;52.644;4.734;2022-11-20T05:16:13;-0.90;99.90
17489;DHT22;8861;52.644;4.734;2022-11-20T05:18:40;-0.90;99.90
17489;DHT22;8861;52.644;4.734;2022-11-20T05:21:08;-0.90;99.90
17489;DHT22;8861;52.644;4.734;2022-11-20T05:23:36;-0.90;99.90
17489;DHT22;8861;52.644;4.734;2022-11-20T05:26:04;-0.90;99.90
17489;DHT22;8861;52.644;4.734;2022-11-20T05:28:31;-0.90;99.90
17489;DHT22;8861;52.644;4.734;2022-11-20T05:31:04;-1.00;99.90
17489;DHT22;8861;52.644;4.734;2022-11-20T05:33:33;-1.00;99.90
17489;DHT22;8861;52.644;4.734;2022-11-20T05:36:00;-1.00;99.90
17489;DHT22;8861;52.644;4.734;2022-11-20T05:38:27;-1.00;99.90
17489;DHT22;8861;52.644;4.734;2022-11-20T05:40:54;-1.10;99.90
17489;DHT22;8861;52.644;4.734;2022-11-20T05:43:21;-1.10;99.90
17489;DHT22;8861;52.644;4.734;2022-11-20T05:45:54;-1.10;99.90
17489;DHT22;8861;52.644;4.734;2022-11-20T05:48:21;-1.10;99.90
17489;DHT22;8861;52.644;4.734;2022-11-20T05:50:49;-1.10;99.90
17489;DHT22;8861;52.644;4.734;2022-11-20T05:53:16;-1.00;99.90
17489;DHT22;8861;52.644;4.734;2022-11-20T05:55:43;-1.00;99.90
17489;DHT22;8861;52.644;4.734;2022-11-20T05:58:10;-0.90;99.90
17489;DHT22;8861;52.644;4.734;2022-11-20T06:00:37;-0.90;99.90
17489;DHT22;8861;52.644;4.734;2022-11-20T06:03:04;-0.80;99.90
17489;DHT22;8861;52.644;4.734;2022-11-20T06:05:31;-0.80;99.90
17489;DHT22;8861;52.644;4.734;2022-11-20T06:08:02;-0.70;99.90
17489;DHT22;8861;52.644;4.734;2022-11-20T06:10:28;-0.70;99.90
17489;DHT22;8861;52.644;4.734;2022-11-20T06:12:57;-0.60;99.90
17489;DHT22;8861;52.644;4.734;2022-11-20T06:15:24;-0.70;99.90
17489;DHT22;8861;52.644;4.734;2022-11-20T06:17:52;-0.60;99.90
17489;DHT22;8861;52.644;4.734;2022-11-20T06:20:19;-0.60;99.90
17489;DHT22;8861;52.644;4.734;2022-11-20T06:22:46;-0.60;99.90
17489;DHT22;8861;52.644;4.734;2022-11-20T06:25:14;-0.60;99.90
17489;DHT22;8861;52.644;4.734;2022-11-20T06:27:41;-0.60;99.90
17489;DHT22;8861;52.644;4.734;2022-11-20T06:30:09;-0.60;99.90
17489;DHT22;8861;52.644;4.734;2022-11-20T06:32:36;-0.70;99.90
17489;DHT22;8861;52.644;4.734;2022-11-20T06:35:04;-0.70;99.90
17489;DHT22;8861;52.644;4.734;2022-11-20T06:37:31;-0.70;99.90
17489;DHT22;8861;52.644;4.734;2022-11-20T06:39:58;-0.80;99.90
17489;DHT22;8861;52.644;4.734;2022-11-20T06:42:26;-0.80;99.90
17489;DHT22;8861;52.644;4.734;2022-11-20T06:44:53;-0.80;99.90
17489;DHT22;8861;52.644;4.734;2022-11-20T06:47:19;-0.80;99.90
17489;DHT22;8861;52.644;4.734;2022-11-20T06:49:46;-0.80;99.90
17489;DHT22;8861;52.644;4.734;2022-11-20T06:52:13;-0.80;99.90
17489;DHT22;8861;52.644;4.734;2022-11-20T06:54:40;-0.70;99.90
17489;DHT22;8861;52.644;4.734;2022-11-20T06:57:07;-0.70;99.90
17489;DHT22;8861;52.644;4.734;2022-11-20T06:59:35;-0.70;99.90
17489;DHT22;8861;52.644;4.734;2022-11-20T07:02:02;-0.70;99.90
17489;DHT22;8861;52.644;4.734;2022-11-20T07:04:29;-0.70;99.90
17489;DHT22;8861;52.644;4.734;2022-11-20T07:06:55;-0.70;99.90
17489;DHT22;8861;52.644;4.734;2022-11-20T10:49:53;3.60;99.90
17489;DHT22;8861;52.644;4.734;2022-11-20T10:52:30;3.60;99.90
17489;DHT22;8861;52.644;4.734;2022-11-20T10:55:06;3.70;99.90
17489;DHT22;8861;52.644;4.734;2022-11-20T10:57:52;3.70;99.90
17489;DHT22;8861;52.644;4.734;2022-11-20T11:00:20;3.90;99.90
17489;DHT22;8861;52.644;4.734;2022-11-20T11:02:48;4.00;99.90
17489;DHT22;8861;52.644;4.734;2022-11-20T11:05:25;4.00;99.90
17489;DHT22;8861;52.644;4.734;2022-11-20T11:07:57;4.10;99.90
17489;DHT22;8861;52.644;4.734;2022-11-20T11:10:30;4.10;99.90
17489;DHT22;8861;52.644;4.734;2022-11-20T11:12:59;4.10;99.90
17489;DHT22;8861;52.644;4.734;2022-11-20T11:15:28;4.00;99.90
17489;DHT22;8861;52.644;4.734;2022-11-20T11:17:56;4.00;99.90
17489;DHT22;8861;52.644;4.734;2022-11-20T11:20:25;3.90;99.90
17489;DHT22;8861;52.644;4.734;2022-11-20T11:22:53;4.00;99.90
17489;DHT22;8861;52.644;4.734;2022-11-20T11:25:26;4.00;99.90
17489;DHT22;8861;52.644;4.734;2022-11-20T11:27:55;4.00;99.90
17489;DHT22;8861;52.644;4.734;2022-11-20T11:30:24;4.00;99.90
17489;DHT22;8861;52.644;4.734;2022-11-20T11:33:02;4.00;99.90
17489;DHT22;8861;52.644;4.734;2022-11-20T11:35:30;4.10;99.90
17489;DHT22;8861;52.644;4.734;2022-11-20T11:38:04;4.10;99.90
17489;DHT22;8861;52.644;4.734;2022-11-20T11:40:32;4.20;99.90
17489;DHT22;8861;52.644;4.734;2022-11-20T11:43:02;4.10;99.90
17489;DHT22;8861;52.644;4.734;2022-11-20T11:45:30;4.10;99.90
17489;DHT22;8861;52.644;4.734;2022-11-20T11:47:57;4.00;99.90
17489;DHT22;8861;52.644;4.734;2022-11-20T11:50:26;4.10;99.90
17489;DHT22;8861;52.644;4.734;2022-11-20T11:53:03;4.10;99.90
17489;DHT22;8861;52.644;4.734;2022-11-20T11:55:36;4.10;99.90
17489;DHT22;8861;52.644;4.734;2022-11-20T11:58:14;4.20;99.90
17489;DHT22;8861;52.644;4.734;2022-11-20T12:00:51;4.20;99.90
17489;DHT22;8861;52.644;4.734;2022-11-20T12:03:27;4.30;99.90
17489;DHT22;8861;52.644;4.734;2022-11-20T12:05:58;4.30;99.90
17489;DHT22;8861;52.644;4.734;2022-11-20T12:08:31;4.30;99.90
17489;DHT22;8861;52.644;4.734;2022-11-20T12:11:03;4.40;99.90
17489;DHT22;8861;52.644;4.734;2022-11-20T12:13:39;4.40;99.90
17489;DHT22;8861;52.644;4.734;2022-11-20T12:16:11;4.40;99.90
17489;DHT22;8861;52.644;4.734;2022-11-20T12:18:39;4.40;99.90
17489;DHT22;8861;52.644;4.734;2022-11-20T12:21:17;4.40;99.90
17489;DHT22;8861;52.644;4.734;2022-11-20T12:23:54;4.30;99.90
17489;DHT22;8861;52.644;4.734;2022-11-20T12:26:32;4.30;99.90
17489;DHT22;8861;52.644;4.734;2022-11-20T12:29:08;4.30;99.90
17489;DHT22;8861;52.644;4.734;2022-11-20T12:31:56;4.30;99.90
17489;DHT22;8861;52.644;4.734;2022-11-20T12:34:41;4.40;99.90
17489;DHT22;8861;52.644;4.734;2022-11-20T12:37:21;4.40;99.90
17489;DHT22;8861;52.644;4.734;2022-11-20T12:39:55;4.40;99.90
17489;DHT22;8861;52.644;4.734;2022-11-20T12:42:38;4.30;99.90
17489;DHT22;8861;52.644;4.734;2022-11-20T12:45:46;4.30;99.90
17489;DHT22;8861;52.644;4.734;2022-11-20T12:51:30;4.20;99.90
17489;DHT22;8861;52.644;4.734;2022-11-20T12:54:14;4.20;99.90
17489;DHT22;8861;52.644;4.734;2022-11-20T12:56:49;4.20;99.90
17489;DHT22;8861;52.644;4.734;2022-11-20T12:59:32;4.10;99.90
17489;DHT22;8861;52.644;4.734;2022-11-20T13:02:10;4.10;99.90
17489;DHT22;8861;52.644;4.734;2022-11-20T13:04:53;4.10;99.90
17489;DHT22;8861;52.644;4.734;2022-11-20T13:07:24;4.10;99.90
17489;DHT22;8861;52.644;4.734;2022-11-20T13:09:54;4.10;99.90
17489;DHT22;8861;52.644;4.734;2022-11-20T13:12:25;4.10;99.90
17489;DHT22;8861;52.644;4.734;2022-11-20T13:15:00;4.10;99.90
17489;DHT22;8861;52.644;4.734;2022-11-20T13:17:36;4.10;99.90
17489;DHT22;8861;52.644;4.734;2022-11-20T13:20:06;4.10;99.90
17489;DHT22;8861;52.644;4.734;2022-11-20T13:22:44;4.10;99.90
17489;DHT22;8861;52.644;4.734;2022-11-20T13:25:22;4.10;99.90
17489;DHT22;8861;52.644;4.734;2022-11-20T13:27:50;4.00;99.90
17489;DHT22;8861;52.644;4.734;2022-11-20T13:30:19;4.00;99.90
17489;DHT22;8861;52.644;4.734;2022-11-20T13:32:52;3.90;99.90
17489;DHT22;8861;52.644;4.734;2022-11-20T13:35:28;3.90;99.90
17489;DHT22;8861;52.644;4.734;2022-11-20T13:38:09;3.80;99.90
17489;DHT22;8861;52.644;4.734;2022-11-20T13:40:38;3.90;99.90
17489;DHT22;8861;52.644;4.734;2022-11-20T13:43:22;3.80;99.90
17489;DHT22;8861;52.644;4.734;2022-11-20T13:46:00;3.80;99.90
17489;DHT22;8861;52.644;4.734;2022-11-20T13:48:30;3.80;99.90
17489;DHT22;8861;52.644;4.734;2022-11-20T13:51:09;3.80;99.90
17489;DHT22;8861;52.644;4.734;2022-11-20T13:54:09;3.80;99.90
17489;DHT22;8861;52.644;4.734;2022-11-20T13:56:51;3.70;99.90
17489;DHT22;8861;52.644;4.734;2022-11-20T13:59:33;3.70;99.90
17489;DHT22;8861;52.644;4.734;2022-11-20T14:02:02;3.70;99.90
17489;DHT22;8861;52.644;4.734;2022-11-20T14:04:32;3.70;99.90
17489;DHT22;8861;52.644;4.734;2022-11-20T14:07:00;3.70;99.90
17489;DHT22;8861;52.644;4.734;2022-11-20T14:09:29;3.70;99.90
17489;DHT22;8861;52.644;4.734;2022-11-20T14:11:56;3.70;99.90
17489;DHT22;8861;52.644;4.734;2022-11-20T14:14:26;3.70;99.90
17489;DHT22;8861;52.644;4.734;2022-11-20T14:17:04;3.70;99.90
17489;DHT22;8861;52.644;4.734;2022-11-20T14:19:31;3.80;99.90
17489;DHT22;8861;52.644;4.734;2022-11-20T14:22:14;3.80;99.90
17489;DHT22;8861;52.644;4.734;2022-11-20T14:24:43;3.80;99.90
17489;DHT22;8861;52.644;4.734;2022-11-20T14:27:13;3.90;99.90
17489;DHT22;8861;52.644;4.734;2022-11-20T14:29:43;3.80;99.90
17489;DHT22;8861;52.644;4.734;2022-11-20T14:32:11;3.80;99.90
17489;DHT22;8861;52.644;4.734;2022-11-20T14:34:44;3.80;99.90
17489;DHT22;8861;52.644;4.734;2022-11-20T14:37:12;3.80;99.90
17489;DHT22;8861;52.644;4.734;2022-11-20T14:39:42;3.80;99.90
17489;DHT22;8861;52.644;4.734;2022-11-20T14:42:15;3.80;99.90
17489;DHT22;8861;52.644;4.734;2022-11-20T14:44:50;3.80;99.90
17489;DHT22;8861;52.644;4.734;2022-11-20T14:47:26;3.80;99.90
17489;DHT22;8861;52.644;4.734;2022-11-20T14:49:55;3.80;99.90
17489;DHT22;8861;52.644;4.734;2022-11-20T14:52:23;3.80;99.90
17489;DHT22;8861;52.644;4.734;2022-11-20T14:54:52;3.70;99.90
17489;DHT22;8861;52.644;4.734;2022-11-20T14:57:25;3.70;99.90
17489;DHT22;8861;52.644;4.734;2022-11-20T15:00:06;3.70;99.90
17489;DHT22;8861;52.644;4.734;2022-11-20T15:02:33;3.70;99.90
17489;DHT22;8861;52.644;4.734;2022-11-20T15:05:02;3.70;99.90
17489;DHT22;8861;52.644;4.734;2022-11-20T15:07:30;3.70;99.90
17489;DHT22;8861;52.644;4.734;2022-11-20T15:10:08;3.60;99.90
17489;DHT22;8861;52.644;4.734;2022-11-20T15:12:38;3.60;99.90
17489;DHT22;8861;52.644;4.734;2022-11-20T15:15:11;3.70;99.90
17489;DHT22;8861;52.644;4.734;2022-11-20T15:17:40;3.60;99.90
17489;DHT22;8861;52.644;4.734;2022-11-20T15:20:13;3.60;99.90
17489;DHT22;8861;52.644;4.734;2022-11-20T15:22:40;3.60;99.90
17489;DHT22;8861;52.644;4.734;2022-11-20T15:25:15;3.60;99.90
17489;DHT22;8861;52.644;4.734;2022-11-20T15:27:43;3.60;99.90
17489;DHT22;8861;52.644;4.734;2022-11-20T15:30:15;3.60;99.90
17489;DHT22;8861;52.644;4.734;2022-11-20T15:32:43;3.70;99.90
17489;DHT22;8861;52.644;4.734;2022-11-20T15:35:12;3.60;99.90
17489;DHT22;8861;52.644;4.734;2022-11-20T15:37:39;3.60;99.90
17489;DHT22;8861;52.644;4.734;2022-11-20T15:40:07;3.60;99.90
17489;DHT22;8861;52.644;4.734;2022-11-20T15:42:35;3.70;99.90
17489;DHT22;8861;52.644;4.734;2022-11-20T15:45:02;3.70;99.90
17489;DHT22;8861;52.644;4.734;2022-11-20T15:47:33;3.60;99.90
17489;DHT22;8861;52.644;4.734;2022-11-20T15:50:02;3.70;99.90
17489;DHT22;8861;52.644;4.734;2022-11-20T15:52:29;3.60;99.90
17489;DHT22;8861;52.644;4.734;2022-11-20T15:54:56;3.60;99.90
17489;DHT22;8861;52.644;4.734;2022-11-20T15:57:22;3.60;99.90
17489;DHT22;8861;52.644;4.734;2022-11-20T15:59:49;3.60;99.90
17489;DHT22;8861;52.644;4.734;2022-11-20T16:02:16;3.60;99.90
17489;DHT22;8861;52.644;4.734;2022-11-20T16:04:44;3.60;99.90
17489;DHT22;8861;52.644;4.734;2022-11-20T16:07:11;3.50;99.90
17489;DHT22;8861;52.644;4.734;2022-11-20T16:09:38;3.50;99.90
17489;DHT22;8861;52.644;4.734;2022-11-20T16:12:07;3.50;99.90
17489;DHT22;8861;52.644;4.734;2022-11-20T16:14:54;3.50;99.90
17489;DHT22;8861;52.644;4.734;2022-11-20T16:17:38;3.50;99.90
17489;DHT22;8861;52.644;4.734;2022-11-20T16:20:12;3.50;99.90
17489;DHT22;8861;52.644;4.734;2022-11-20T16:22:39;3.50;99.90
17489;DHT22;8861;52.644;4.734;2022-11-20T16:25:07;3.50;99.90
17489;DHT22;8861;52.644;4.734;2022-11-20T16:27:34;3.50;99.90
17489;DHT22;8861;52.644;4.734;2022-11-20T16:30:01;3.40;99.90
17489;DHT22;8861;52.644;4.734;2022-11-20T16:32:28;3.40;99.90
17489;DHT22;8861;52.644;4.734;2022-11-20T16:34:55;3.40;99.90
17489;DHT22;8861;52.644;4.734;2022-11-20T16:37:23;3.40;99.90
17489;DHT22;8861;52.644;4.734;2022-11-20T16:39:50;3.40;99.90
17489;DHT22;8861;52.644;4.734;2022-11-20T16:42:17;3.40;99.90
17489;DHT22;8861;52.644;4.734;2022-11-20T16:44:45;3.40;99.90
17489;DHT22;8861;52.644;4.734;2022-11-20T16:47:12;3.40;99.90
17489;DHT22;8861;52.644;4.734;2022-11-20T16:49:39;3.40;99.90
17489;DHT22;8861;52.644;4.734;2022-11-20T16:52:06;3.50;99.90
17489;DHT22;8861;52.644;4.734;2022-11-20T16:54:34;3.50;99.90
17489;DHT22;8861;52.644;4.734;2022-11-20T16:57:01;3.50;99.90
17489;DHT22;8861;52.644;4.734;2022-11-20T16:59:28;3.50;99.90
17489;DHT22;8861;52.644;4.734;2022-11-20T17:01:55;3.50;99.90
17489;DHT22;8861;52.644;4.734;2022-11-20T17:04:22;3.40;99.90
17489;DHT22;8861;52.644;4.734;2022-11-20T17:06:49;3.50;99.90
17489;DHT22;8861;52.644;4.734;2022-11-20T17:09:16;3.50;99.90
17489;DHT22;8861;52.644;4.734;2022-11-20T17:11:44;3.50;99.90
17489;DHT22;8861;52.644;4.734;2022-11-20T17:14:11;3.50;99.90
17489;DHT22;8861;52.644;4.734;2022-11-20T17:16:38;3.50;99.90
17489;DHT22;8861;52.644;4.734;2022-11-20T17:19:05;3.60;99.90
17489;DHT22;8861;52.644;4.734;2022-11-20T17:21:34;3.50;99.90
17489;DHT22;8861;52.644;4.734;2022-11-20T17:24:02;3.60;99.90
17489;DHT22;8861;52.644;4.734;2022-11-20T17:26:30;3.60;99.90
17489;DHT22;8861;52.644;4.734;2022-11-20T17:29:00;3.60;99.90
17489;DHT22;8861;52.644;4.734;2022-11-20T17:31:27;3.70;99.90
17489;DHT22;8861;52.644;4.734;2022-11-20T17:33:55;3.70;99.90
17489;DHT22;8861;52.644;4.734;2022-11-20T17:36:24;3.70;99.90
17489;DHT22;8861;52.644;4.734;2022-11-20T17:38:51;3.70;99.90
17489;DHT22;8861;52.644;4.734;2022-11-20T17:41:19;3.70;99.90
17489;DHT22;8861;52.644;4.734;2022-11-20T17:43:47;3.70;99.90
17489;DHT22;8861;52.644;4.734;2022-11-20T17:46:17;3.70;99.90
17489;DHT22;8861;52.644;4.734;2022-11-20T17:48:45;3.80;99.90
17489;DHT22;8861;52.644;4.734;2022-11-20T17:51:14;3.80;99.90
17489;DHT22;8861;52.644;4.734;2022-11-20T17:53:43;3.80;99.90
17489;DHT22;8861;52.644;4.734;2022-11-20T17:56:10;3.90;99.90
17489;DHT22;8861;52.644;4.734;2022-11-20T17:58:54;3.90;99.90
17489;DHT22;8861;52.644;4.734;2022-11-20T18:01:22;3.90;99.90
17489;DHT22;8861;52.644;4.734;2022-11-20T18:03:49;3.90;99.90
17489;DHT22;8861;52.644;4.734;2022-11-20T18:06:18;3.90;99.90
17489;DHT22;8861;52.644;4.734;2022-11-20T18:08:46;3.90;99.90
17489;DHT22;8861;52.644;4.734;2022-11-20T18:11:15;4.00;99.90
17489;DHT22;8861;52.644;4.734;2022-11-20T18:13:43;4.00;99.90
17489;DHT22;8861;52.644;4.734;2022-11-20T18:16:32;4.00;99.90
17489;DHT22;8861;52.644;4.734;2022-11-20T18:19:00;4.00;99.90
17489;DHT22;8861;52.644;4.734;2022-11-20T18:21:28;4.00;99.90
17489;DHT22;8861;52.644;4.734;2022-11-20T18:23:56;4.00;99.90
17489;DHT22;8861;52.644;4.734;2022-11-20T18:26:24;4.00;99.90
17489;DHT22;8861;52.644;4.734;2022-11-20T18:28:51;4.00;99.90
17489;DHT22;8861;52.644;4.734;2022-11-20T18:31:19;4.00;99.90
17489;DHT22;8861;52.644;4.734;2022-11-20T18:33:48;4.00;99.90
17489;DHT22;8861;52.644;4.734;2022-11-20T18:36:18;4.00;99.90
17489;DHT22;8861;52.644;4.734;2022-11-20T18:38:47;4.00;99.90
17489;DHT22;8861;52.644;4.734;2022-11-20T18:41:16;4.00;99.90
17489;DHT22;8861;52.644;4.734;2022-11-20T18:43:57;4.00;99.90
17489;DHT22;8861;52.644;4.734;2022-11-20T18:46:41;4.00;99.90
17489;DHT22;8861;52.644;4.734;2022-11-20T18:49:10;4.00;99.90
17489;DHT22;8861;52.644;4.734;2022-11-20T18:51:38;4.00;99.90
17489;DHT22;8861;52.644;4.734;2022-11-20T18:54:05;4.00;99.90
17489;DHT22;8861;52.644;4.734;2022-11-20T18:56:33;4.10;99.90
17489;DHT22;8861;52.644;4.734;2022-11-20T18:59:00;4.10;99.90
17489;DHT22;8861;52.644;4.734;2022-11-20T19:01:27;4.10;99.90
17489;DHT22;8861;52.644;4.734;2022-11-20T19:03:54;4.10;99.90
17489;DHT22;8861;52.644;4.734;2022-11-20T19:06:22;4.10;99.90
17489;DHT22;8861;52.644;4.734;2022-11-20T19:08:50;4.10;99.90
17489;DHT22;8861;52.644;4.734;2022-11-20T19:11:17;4.20;99.90
17489;DHT22;8861;52.644;4.734;2022-11-20T19:13:44;4.20;99.90
17489;DHT22;8861;52.644;4.734;2022-11-20T19:16:13;4.20;99.90
17489;DHT22;8861;52.644;4.734;2022-11-20T19:18:40;4.20;99.90
17489;DHT22;8861;52.644;4.734;2022-11-20T19:21:09;4.20;99.90
17489;DHT22;8861;52.644;4.734;2022-11-20T19:23:38;4.20;99.90
17489;DHT22;8861;52.644;4.734;2022-11-20T19:26:05;4.20;99.90
17489;DHT22;8861;52.644;4.734;2022-11-20T19:28:33;4.20;99.90
17489;DHT22;8861;52.644;4.734;2022-11-20T19:31:02;4.20;99.90
17489;DHT22;8861;52.644;4.734;2022-11-20T19:33:29;4.20;99.90
17489;DHT22;8861;52.644;4.734;2022-11-20T19:35:56;4.20;99.90
17489;DHT22;8861;52.644;4.734;2022-11-20T19:38:23;4.20;99.90
17489;DHT22;8861;52.644;4.734;2022-11-20T19:40:52;4.30;99.90
17489;DHT22;8861;52.644;4.734;2022-11-20T19:43:18;4.30;99.90
17489;DHT22;8861;52.644;4.734;2022-11-20T19:45:45;4.30;99.90
17489;DHT22;8861;52.644;4.734;2022-11-20T19:48:12;4.30;99.90
17489;DHT22;8861;52.644;4.734;2022-11-20T19:50:39;4.30;99.90
17489;DHT22;8861;52.644;4.734;2022-11-20T19:53:06;4.30;99.90
17489;DHT22;8861;52.644;4.734;2022-11-20T19:55:33;4.30;99.90